Time;durP1;ratioP1;P1;durP2;ratioP2;P2;SDS_P1;SDS_P2;PMS_P1;PMS_P2;Temp;Humidity;BMP_temperature;BMP_pressure;BME280_temperature;BME280_humidity;BME280_pressure;Samples;Min_cycle;Max_cycle;Signal;HPM_P1;HPM_P2
2023/01/24 00:00:45;;;;;;;503.13;261.00;;;;;;;;;;4920109;28;20659;-48
2023/01/24 00:03:12;;;;;;;530.83;267.90;;;;;;;;;;4937829;28;20713;-48
2023/01/24 00:05:42;;;;;;;437.00;216.47;;;;;;;;;;4940221;28;20696;-48
2023/01/24 00:08:08;;;;;;;513.93;258.97;;;;;;;;;;4921730;29;20259;-48
2023/01/24 00:10:34;;;;;;;440.13;221.67;;;;;;;;;;4931298;28;20211;-48
2023/01/24 00:13:00;;;;;;;506.17;252.00;;;;;;;;;;4923255;28;20248;-48
2023/01/24 00:15:27;;;;;;;437.57;218.17;;;;;;;;;;4930374;28;20223;-48
2023/01/24 00:17:53;;;;;;;450.80;223.17;;;;;;;;;;4938506;28;20219;-47
2023/01/24 00:20:20;;;;;;;468.83;233.50;;;;;;;;;;4923053;28;20175;-48
2023/01/24 00:22:46;;;;;;;481.33;237.30;;;;;;;;;;4924027;28;20207;-49
2023/01/24 00:25:12;;;;;;;538.40;262.33;;;;;;;;;;4941732;28;20254;-47
2023/01/24 00:27:38;;;;;;;464.53;230.17;;;;;;;;;;4940601;28;20700;-48
2023/01/24 00:30:05;;;;;;;483.77;244.07;;;;;;;;;;4939179;28;20261;-49
2023/01/24 00:32:31;;;;;;;490.33;248.90;;;;;;;;;;4940080;28;20237;-49
2023/01/24 00:34:58;;;;;;;512.13;253.53;;;;;;;;;;4941065;29;20202;-49
2023/01/24 00:37:25;;;;;;;429.97;215.13;;;;;;;;;;4938432;28;20292;-48
2023/01/24 00:39:51;;;;;;;482.90;243.17;;;;;;;;;;4932375;28;20219;-48
2023/01/24 00:42:17;;;;;;;489.50;249.33;;;;;;;;;;4939366;28;20214;-48
2023/01/24 00:44:43;;;;;;;506.37;256.53;;;;;;;;;;4919643;28;20578;-49
2023/01/24 00:47:09;;;;;;;517.37;257.70;;;;;;;;;;4930327;28;20256;-47
2023/01/24 00:49:35;;;;;;;437.83;217.27;;;;;;;;;;4939868;28;20267;-47
2023/01/24 00:52:01;;;;;;;404.97;203.80;;;;;;;;;;4940147;28;20777;-47
2023/01/24 00:54:27;;;;;;;430.93;205.10;;;;;;;;;;4943785;28;20250;-48
2023/01/24 00:56:53;;;;;;;538.23;275.40;;;;;;;;;;4907202;28;20255;-50
2023/01/24 00:59:19;;;;;;;586.70;311.50;;;;;;;;;;4897977;28;20184;-49
2023/01/24 01:01:45;;;;;;;528.87;274.87;;;;;;;;;;4903168;28;20349;-50
2023/01/24 01:04:12;;;;;;;504.00;251.57;;;;;;;;;;4917132;28;20558;-50
2023/01/24 01:06:38;;;;;;;487.57;254.07;;;;;;;;;;4911938;28;20227;-49
2023/01/24 01:09:04;;;;;;;560.13;293.83;;;;;;;;;;4892985;28;20277;-49
2023/01/24 01:11:30;;;;;;;517.33;263.77;;;;;;;;;;4901352;28;20199;-49
2023/01/24 01:13:57;;;;;;;498.00;258.60;;;;;;;;;;4902532;28;20499;-50
2023/01/24 01:16:23;;;;;;;579.73;299.50;;;;;;;;;;4909076;28;20223;-50
2023/01/24 01:18:51;;;;;;;580.70;299.30;;;;;;;;;;4899559;28;20223;-50
2023/01/24 01:21:18;;;;;;;527.23;270.20;;;;;;;;;;4902591;28;20227;-50
2023/01/24 01:23:45;;;;;;;575.67;317.37;;;;;;;;;;4886326;28;20681;-50
2023/01/24 01:26:19;;;;;;;549.97;287.53;;;;;;;;;;4903763;28;20208;-50
2023/01/24 01:28:46;;;;;;;465.30;244.37;;;;;;;;;;4895344;28;20230;-49
2023/01/24 01:31:12;;;;;;;466.20;233.17;;;;;;;;;;4899014;28;20216;-49
2023/01/24 01:33:38;;;;;;;524.50;269.83;;;;;;;;;;4907485;28;20216;-49
2023/01/24 01:36:05;;;;;;;536.50;274.23;;;;;;;;;;4901604;28;20252;-49
2023/01/24 01:38:31;;;;;;;445.37;230.37;;;;;;;;;;4894026;28;20171;-49
2023/01/24 01:40:57;;;;;;;582.03;302.00;;;;;;;;;;4897130;28;20216;-49
2023/01/24 01:43:25;;;;;;;474.57;235.63;;;;;;;;;;4905058;28;20290;-49
2023/01/24 01:45:52;;;;;;;454.13;230.80;;;;;;;;;;4902910;28;20285;-49
2023/01/24 01:48:42;;;;;;;480.47;242.43;;;;;;;;;;4911880;28;20219;-49
2023/01/24 01:51:23;;;;;;;485.57;247.77;;;;;;;;;;4917763;28;20943;-49
2023/01/24 01:53:49;;;;;;;520.87;267.43;;;;;;;;;;4910616;28;20224;-50
2023/01/24 01:56:22;;;;;;;536.03;278.17;;;;;;;;;;4904550;28;20319;-50
2023/01/24 01:58:49;;;;;;;508.20;261.13;;;;;;;;;;4900734;28;20215;-50
2023/01/24 02:01:15;;;;;;;532.23;273.03;;;;;;;;;;4896535;28;20230;-52
2023/01/24 02:03:47;;;;;;;445.87;225.90;;;;;;;;;;4904904;28;20429;-49
2023/01/24 02:06:20;;;;;;;432.07;224.13;;;;;;;;;;4901547;28;20238;-51
2023/01/24 02:08:47;;;;;;;450.50;229.60;;;;;;;;;;4907541;28;20331;-49
2023/01/24 02:16:44;;;;;;;567.53;293.10;;;;;;;;;;4905544;28;20330;-50
2023/01/24 02:19:16;;;;;;;454.67;235.03;;;;;;;;;;4897253;28;20319;-50
2023/01/24 02:21:43;;;;;;;532.60;265.33;;;;;;;;;;4902364;28;20434;-49
2023/01/24 02:24:17;;;;;;;519.03;259.93;;;;;;;;;;4902001;28;20234;-50
2023/01/24 02:26:43;;;;;;;570.97;295.80;;;;;;;;;;4899619;28;20206;-50
2023/01/24 02:29:12;;;;;;;493.43;253.87;;;;;;;;;;4901695;28;20723;-50
2023/01/24 02:31:58;;;;;;;542.07;276.40;;;;;;;;;;4896100;28;20246;-50
2023/01/24 02:34:25;;;;;;;447.93;231.97;;;;;;;;;;4902529;28;20260;-50
2023/01/24 02:36:53;;;;;;;549.57;280.47;;;;;;;;;;4898635;28;20350;-50
2023/01/24 02:39:22;;;;;;;469.47;242.10;;;;;;;;;;4899324;28;20219;-50
2023/01/24 02:41:53;;;;;;;515.17;260.17;;;;;;;;;;4904555;28;20696;-50
2023/01/24 02:44:22;;;;;;;487.57;248.07;;;;;;;;;;4903628;28;20748;-49
2023/01/24 02:46:48;;;;;;;456.30;235.37;;;;;;;;;;4898198;28;20239;-50
2023/01/24 02:49:14;;;;;;;543.23;281.43;;;;;;;;;;4901027;28;20300;-49
2023/01/24 02:54:25;;;;;;;490.77;247.23;;;;;;;;;;4896606;28;20306;-49
2023/01/24 02:59:36;;;;;;;460.67;246.60;;;;;;;;;;4891509;28;20290;-49
2023/01/24 03:02:02;;;;;;;453.67;229.07;;;;;;;;;;4900132;28;20279;-49
2023/01/24 03:04:28;;;;;;;453.03;225.50;;;;;;;;;;4897724;28;20223;-51
2023/01/24 03:06:55;;;;;;;531.50;280.33;;;;;;;;;;4896354;28;20273;-51
2023/01/24 03:09:33;;;;;;;569.70;292.03;;;;;;;;;;4904909;28;20301;-51
2023/01/24 03:36:44;;;;;;;436.87;222.30;;;;;;;;;;4903194;28;20605;-49
2023/01/24 03:41:56;;;;;;;460.93;228.53;;;;;;;;;;4908335;28;20275;-49
2023/01/24 03:44:23;;;;;;;564.00;289.83;;;;;;;;;;4901312;28;20291;-50
2023/01/24 03:46:49;;;;;;;524.27;266.30;;;;;;;;;;4901032;28;20379;-50
2023/01/24 03:49:16;;;;;;;539.27;273.97;;;;;;;;;;4903976;28;20207;-49
2023/01/24 03:54:28;;;;;;;519.30;269.47;;;;;;;;;;4903486;28;20248;-49
2023/01/24 03:56:54;;;;;;;562.70;287.00;;;;;;;;;;4907954;28;20243;-49
2023/01/24 03:59:20;;;;;;;574.37;295.27;;;;;;;;;;4904436;28;20275;-49
2023/01/24 04:01:46;;;;;;;478.87;246.53;;;;;;;;;;4903906;28;20280;-49
2023/01/24 04:04:12;;;;;;;462.23;236.50;;;;;;;;;;4908035;28;20318;-50
2023/01/24 04:06:39;;;;;;;525.00;271.33;;;;;;;;;;4911445;28;20320;-49
2023/01/24 04:09:05;;;;;;;492.63;246.73;;;;;;;;;;4899702;28;20621;-49
2023/01/24 04:11:31;;;;;;;502.20;255.33;;;;;;;;;;4899770;28;20185;-51
2023/01/24 04:13:57;;;;;;;507.03;265.70;;;;;;;;;;4914511;28;20188;-49
2023/01/24 04:16:23;;;;;;;459.20;229.90;;;;;;;;;;4903109;28;20224;-49
2023/01/24 04:18:49;;;;;;;465.10;230.90;;;;;;;;;;4896986;28;20231;-51
2023/01/24 04:21:15;;;;;;;502.67;250.13;;;;;;;;;;4906893;28;20290;-51
2023/01/24 04:23:42;;;;;;;559.33;289.37;;;;;;;;;;4901774;28;20196;-50
2023/01/24 04:26:08;;;;;;;486.90;250.30;;;;;;;;;;4900505;28;20838;-51
2023/01/24 04:28:35;;;;;;;551.80;280.37;;;;;;;;;;4905664;28;21723;-49
2023/01/24 04:31:01;;;;;;;474.97;245.43;;;;;;;;;;4898531;28;20683;-50
2023/01/24 04:33:28;;;;;;;493.63;250.73;;;;;;;;;;4906742;28;20219;-49
2023/01/24 04:35:58;;;;;;;474.63;245.40;;;;;;;;;;4895155;28;20243;-50
2023/01/24 04:38:25;;;;;;;488.70;247.37;;;;;;;;;;4902048;28;20212;-50
2023/01/24 04:41:01;;;;;;;543.03;286.70;;;;;;;;;;4899058;28;20960;-50
2023/01/24 04:43:27;;;;;;;521.60;271.77;;;;;;;;;;4906031;28;20589;-50
2023/01/24 04:45:57;;;;;;;484.97;254.80;;;;;;;;;;4905119;28;20596;-51
2023/01/24 04:48:23;;;;;;;492.73;253.73;;;;;;;;;;4906182;28;20235;-50
2023/01/24 04:50:49;;;;;;;538.53;279.20;;;;;;;;;;4893474;28;20684;-50
2023/01/24 04:53:15;;;;;;;484.17;250.23;;;;;;;;;;4897805;28;20625;-50
2023/01/24 04:55:41;;;;;;;488.50;246.53;;;;;;;;;;4900812;28;20281;-50
2023/01/24 04:58:07;;;;;;;461.37;235.27;;;;;;;;;;4899409;28;20368;-50
2023/01/24 05:00:33;;;;;;;533.80;273.97;;;;;;;;;;4897173;28;20367;-50
2023/01/24 05:02:59;;;;;;;492.63;250.07;;;;;;;;;;4905086;28;20624;-49
2023/01/24 05:05:25;;;;;;;499.17;258.53;;;;;;;;;;4922132;28;20222;-50
2023/01/24 05:07:52;;;;;;;499.87;255.93;;;;;;;;;;4904360;28;20242;-50
2023/01/24 05:10:17;;;;;;;456.43;233.77;;;;;;;;;;4906701;28;20216;-50
2023/01/24 05:12:43;;;;;;;452.87;234.07;;;;;;;;;;4908473;28;20218;-50
2023/01/24 05:15:10;;;;;;;505.63;265.50;;;;;;;;;;4909331;28;20669;-49
2023/01/24 05:17:36;;;;;;;558.60;290.00;;;;;;;;;;4906047;28;20267;-50
2023/01/24 05:20:03;;;;;;;481.20;254.57;;;;;;;;;;4905023;28;20192;-49
2023/01/24 05:22:29;;;;;;;545.80;272.63;;;;;;;;;;4903635;28;20273;-50
2023/01/24 05:24:55;;;;;;;460.83;231.57;;;;;;;;;;4901626;28;20282;-50
2023/01/24 05:27:21;;;;;;;499.63;256.33;;;;;;;;;;4902032;28;21612;-50
2023/01/24 05:29:47;;;;;;;536.30;275.73;;;;;;;;;;4905040;28;20220;-49
2023/01/24 05:32:13;;;;;;;537.30;272.60;;;;;;;;;;4906907;28;20248;-50
2023/01/24 05:34:40;;;;;;;485.47;250.00;;;;;;;;;;4902215;28;20226;-50
2023/01/24 05:37:06;;;;;;;472.63;244.83;;;;;;;;;;4903383;28;20484;-51
2023/01/24 05:39:32;;;;;;;515.57;276.00;;;;;;;;;;4900298;28;20277;-49
2023/01/24 05:41:58;;;;;;;438.33;231.67;;;;;;;;;;4905507;28;20250;-49
2023/01/24 05:44:25;;;;;;;492.17;261.77;;;;;;;;;;4908952;28;20278;-49
2023/01/24 05:46:51;;;;;;;448.30;231.97;;;;;;;;;;4912935;28;20840;-50
2023/01/24 05:49:18;;;;;;;425.23;214.57;;;;;;;;;;4911050;28;20302;-50
2023/01/24 05:51:44;;;;;;;447.23;227.20;;;;;;;;;;4914220;28;20631;-50
2023/01/24 05:54:10;;;;;;;473.13;240.47;;;;;;;;;;4922033;28;20955;-49
2023/01/24 05:56:36;;;;;;;512.50;268.00;;;;;;;;;;4923007;28;20233;-50
2023/01/24 05:59:03;;;;;;;443.70;222.90;;;;;;;;;;4925459;28;20259;-50
2023/01/24 06:01:29;;;;;;;544.83;283.40;;;;;;;;;;4916420;28;20290;-50
2023/01/24 06:03:55;;;;;;;436.20;222.40;;;;;;;;;;4933817;28;20211;-50
2023/01/24 06:06:22;;;;;;;441.80;221.67;;;;;;;;;;4925725;28;20945;-49
2023/01/24 06:08:48;;;;;;;442.27;217.43;;;;;;;;;;4919640;28;20223;-49
2023/01/24 06:11:22;;;;;;;445.67;227.70;;;;;;;;;;4922817;28;20269;-49
2023/01/24 06:13:48;;;;;;;528.83;276.40;;;;;;;;;;4917025;28;20256;-50
2023/01/24 06:16:16;;;;;;;437.57;221.80;;;;;;;;;;4918224;28;20227;-50
2023/01/24 06:18:42;;;;;;;530.07;273.43;;;;;;;;;;4913582;28;20366;-50
2023/01/24 06:21:14;;;;;;;455.00;237.37;;;;;;;;;;4912941;28;20461;-50
2023/01/24 06:23:40;;;;;;;685.70;377.30;;;;;;;;;;4900209;28;20965;-49
2023/01/24 06:26:09;;;;;;;493.00;257.70;;;;;;;;;;4887782;28;20293;-50
2023/01/24 06:28:36;;;;;;;552.37;289.80;;;;;;;;;;4913544;28;20308;-50
2023/01/24 06:31:10;;;;;;;480.10;247.37;;;;;;;;;;4911549;28;20259;-50
2023/01/24 06:33:41;;;;;;;572.73;311.97;;;;;;;;;;4916875;28;20303;-50
2023/01/24 06:36:13;;;;;;;522.27;270.40;;;;;;;;;;4897222;28;20236;-50
2023/01/24 06:38:39;;;;;;;421.47;215.70;;;;;;;;;;4903365;28;20232;-49
2023/01/24 06:41:13;;;;;;;463.77;232.83;;;;;;;;;;4912682;28;20542;-49
2023/01/24 06:43:39;;;;;;;489.77;251.57;;;;;;;;;;4910523;28;20558;-49
2023/01/24 06:46:05;;;;;;;517.63;265.63;;;;;;;;;;4912020;28;20560;-49
2023/01/24 06:48:31;;;;;;;484.70;240.57;;;;;;;;;;4918483;28;20269;-49
2023/01/24 06:50:59;;;;;;;622.33;340.93;;;;;;;;;;4903183;28;20215;-49
2023/01/24 06:53:26;;;;;;;518.27;264.43;;;;;;;;;;4874386;28;20275;-50
2023/01/24 06:55:52;;;;;;;550.63;268.37;;;;;;;;;;4911633;23;20216;-53
2023/01/24 06:58:18;;;;;;;483.10;223.67;;;;;;;;;;5013390;28;20362;-53
2023/01/24 07:00:44;;;;;;;443.93;201.33;;;;;;;;;;5015173;28;20213;-53
2023/01/24 07:03:10;;;;;;;503.00;233.50;;;;;;;;;;5005994;28;20454;-52
2023/01/24 07:05:37;;;;;;;490.93;229.53;;;;;;;;;;5011374;28;20758;-53
2023/01/24 07:08:04;;;;;;;449.67;202.07;;;;;;;;;;5029434;28;20178;-52
2023/01/24 07:10:30;;;;;;;472.60;220.47;;;;;;;;;;5005627;28;20209;-53
2023/01/24 07:12:56;;;;;;;447.20;205.17;;;;;;;;;;5007923;28;21100;-52
2023/01/24 07:15:22;;;;;;;496.40;226.43;;;;;;;;;;5013474;28;20723;-53
2023/01/24 07:17:48;;;;;;;413.33;180.57;;;;;;;;;;4997485;28;20236;-53
2023/01/24 07:20:15;;;;;;;527.63;236.40;;;;;;;;;;5014097;28;20539;-54
2023/01/24 07:22:42;;;;;;;477.00;229.83;;;;;;;;;;5003617;28;20350;-53
2023/01/24 07:25:15;;;;;;;439.87;206.97;;;;;;;;;;5000384;28;20226;-54
2023/01/24 07:27:45;;;;;;;464.40;204.57;;;;;;;;;;5033197;28;20253;-53
2023/01/24 07:30:12;;;;;;;468.60;215.97;;;;;;;;;;5013430;28;20281;-54
2023/01/24 07:32:38;;;;;;;454.40;201.37;;;;;;;;;;5030915;28;20259;-54
2023/01/24 07:35:04;;;;;;;435.90;201.70;;;;;;;;;;5041240;28;20185;-54
2023/01/24 07:37:30;;;;;;;436.87;200.83;;;;;;;;;;5026668;28;20357;-53
2023/01/24 07:39:56;;;;;;;450.57;199.00;;;;;;;;;;5043628;28;20256;-53
2023/01/24 07:42:22;;;;;;;530.27;245.57;;;;;;;;;;5005422;28;20241;-51
2023/01/24 07:44:49;;;;;;;484.23;218.40;;;;;;;;;;5021120;28;20256;-51
2023/01/24 07:47:15;;;;;;;493.93;237.00;;;;;;;;;;5020025;28;20747;-50
2023/01/24 07:49:41;;;;;;;490.43;233.03;;;;;;;;;;4990525;28;20467;-50
2023/01/24 07:52:07;;;;;;;536.13;256.63;;;;;;;;;;5001052;28;22874;-50
2023/01/24 07:54:33;;;;;;;435.67;197.87;;;;;;;;;;5002126;28;20429;-53
2023/01/24 07:57:00;;;;;;;464.07;207.63;;;;;;;;;;4986350;28;20275;-52
2023/01/24 07:59:26;;;;;;;452.17;210.17;;;;;;;;;;4999238;28;20190;-52
2023/01/24 08:01:52;;;;;;;413.00;192.23;;;;;;;;;;4984452;28;20268;-53
2023/01/24 08:04:18;;;;;;;484.03;209.63;;;;;;;;;;5000082;28;20214;-52
2023/01/24 08:09:29;;;;;;;477.87;213.30;;;;;;;;;;5044909;28;20220;-53
2023/01/24 08:11:55;;;;;;;477.57;218.43;;;;;;;;;;5063817;28;20214;-52
2023/01/24 08:14:21;;;;;;;463.60;201.30;;;;;;;;;;5015070;28;20232;-54
2023/01/24 08:16:48;;;;;;;448.37;203.57;;;;;;;;;;5010818;28;20386;-54
2023/01/24 08:19:14;;;;;;;522.67;244.80;;;;;;;;;;5036972;28;20413;-54
2023/01/24 08:21:40;;;;;;;472.10;220.37;;;;;;;;;;5043966;28;20305;-52
2023/01/24 08:24:07;;;;;;;472.63;214.10;;;;;;;;;;5028407;28;20214;-52
2023/01/24 08:26:33;;;;;;;529.10;237.93;;;;;;;;;;5025548;28;20425;-51
2023/01/24 08:28:59;;;;;;;491.90;221.27;;;;;;;;;;5026406;28;20592;-52
2023/01/24 08:31:25;;;;;;;495.50;234.47;;;;;;;;;;5008067;28;20218;-52
2023/01/24 08:33:51;;;;;;;527.53;237.27;;;;;;;;;;5016482;28;20221;-53
2023/01/24 08:36:19;;;;;;;542.90;260.87;;;;;;;;;;4979740;28;20222;-52
2023/01/24 08:38:45;;;;;;;504.80;236.13;;;;;;;;;;4982869;28;20344;-52
2023/01/24 08:41:11;;;;;;;514.07;247.90;;;;;;;;;;4975655;28;20243;-52
2023/01/24 08:43:37;;;;;;;469.13;232.80;;;;;;;;;;5001813;28;20221;-52
2023/01/24 08:46:03;;;;;;;546.73;260.50;;;;;;;;;;4998674;28;20320;-53
2023/01/24 08:48:30;;;;;;;548.40;274.63;;;;;;;;;;4977209;28;20232;-52
2023/01/24 08:50:56;;;;;;;524.50;252.00;;;;;;;;;;4974225;28;20222;-53
2023/01/24 08:53:22;;;;;;;518.50;254.13;;;;;;;;;;4977296;28;20335;-53
2023/01/24 08:55:49;;;;;;;525.80;253.83;;;;;;;;;;4978583;28;20292;-53
2023/01/24 08:58:16;;;;;;;448.87;206.83;;;;;;;;;;4981838;28;20222;-52
2023/01/24 09:00:42;;;;;;;468.70;212.07;;;;;;;;;;5021605;28;20210;-53
2023/01/24 09:03:09;;;;;;;530.83;256.40;;;;;;;;;;4987416;28;20238;-53
2023/01/24 09:05:36;;;;;;;462.80;209.93;;;;;;;;;;4992184;28;21690;-54
2023/01/24 09:08:02;;;;;;;447.47;204.97;;;;;;;;;;4997980;28;20624;-53
2023/01/24 09:10:28;;;;;;;445.77;200.13;;;;;;;;;;5020244;28;20790;-53
2023/01/24 09:12:54;;;;;;;457.83;204.40;;;;;;;;;;5055907;28;20431;-53
2023/01/24 09:15:20;;;;;;;477.43;215.03;;;;;;;;;;5015740;28;20221;-53
2023/01/24 09:17:46;;;;;;;496.50;233.00;;;;;;;;;;5023973;28;20241;-53
2023/01/24 09:20:13;;;;;;;443.67;198.87;;;;;;;;;;5026044;28;20170;-53
2023/01/24 09:22:39;;;;;;;468.57;207.73;;;;;;;;;;5026049;28;20206;-53
2023/01/24 09:25:07;;;;;;;453.33;203.80;;;;;;;;;;5018627;28;20285;-53
2023/01/24 09:27:33;;;;;;;445.53;202.50;;;;;;;;;;5042924;28;20233;-53
2023/01/24 09:29:59;;;;;;;483.57;223.43;;;;;;;;;;5017904;28;20230;-53
2023/01/24 09:32:25;;;;;;;485.63;222.33;;;;;;;;;;4995330;28;20194;-53
2023/01/24 09:34:51;;;;;;;508.23;251.87;;;;;;;;;;4994565;28;20695;-53
2023/01/24 09:37:18;;;;;;;494.80;238.47;;;;;;;;;;4984678;28;20352;-53
2023/01/24 09:39:44;;;;;;;471.40;217.37;;;;;;;;;;4982512;28;20251;-52
2023/01/24 09:42:23;;;;;;;432.23;196.73;;;;;;;;;;5019103;28;20275;-53
2023/01/24 09:44:53;;;;;;;492.43;227.03;;;;;;;;;;4996719;28;20834;-53
2023/01/24 09:47:32;;;;;;;471.20;226.83;;;;;;;;;;4953860;28;20205;-53
2023/01/24 09:50:05;;;;;;;466.53;214.00;;;;;;;;;;4958304;28;20233;-53
2023/01/24 09:52:37;;;;;;;439.17;202.90;;;;;;;;;;4951413;28;20288;-52
2023/01/24 09:55:06;;;;;;;473.40;221.70;;;;;;;;;;4957402;28;20337;-53
2023/01/24 09:57:46;;;;;;;423.13;193.30;;;;;;;;;;4965314;28;20315;-54
2023/01/24 10:00:22;;;;;;;485.20;231.20;;;;;;;;;;4961811;28;20349;-54
2023/01/24 10:02:48;;;;;;;486.93;235.60;;;;;;;;;;4962570;28;20217;-54
2023/01/24 10:05:15;;;;;;;504.60;239.90;;;;;;;;;;4960980;28;20253;-54
2023/01/24 10:07:45;;;;;;;468.47;212.63;;;;;;;;;;4965059;28;20282;-53
2023/01/24 10:10:13;;;;;;;519.97;261.13;;;;;;;;;;4957757;28;20213;-53
2023/01/24 10:12:39;;;;;;;511.23;247.83;;;;;;;;;;4965171;28;20213;-53
2023/01/24 10:15:18;;;;;;;485.90;223.27;;;;;;;;;;4957666;28;20279;-53
2023/01/24 10:17:47;;;;;;;505.13;251.97;;;;;;;;;;4957945;28;21038;-54
2023/01/24 10:20:17;;;;;;;639.43;329.37;;;;;;;;;;4948250;28;20179;-54
2023/01/24 10:22:53;;;;;;;485.63;229.87;;;;;;;;;;4950168;28;20715;-54
2023/01/24 10:25:22;;;;;;;512.07;235.07;;;;;;;;;;4963090;28;20627;-54
2023/01/24 10:27:53;;;;;;;512.23;234.07;;;;;;;;;;4964770;28;20240;-54
2023/01/24 10:30:23;;;;;;;494.17;226.23;;;;;;;;;;4975973;28;20288;-53
2023/01/24 10:32:51;;;;;;;461.43;214.77;;;;;;;;;;4964120;28;20305;-54
2023/01/24 10:35:23;;;;;;;444.60;208.73;;;;;;;;;;4972000;28;20243;-53
2023/01/24 10:37:55;;;;;;;485.53;230.97;;;;;;;;;;4961866;28;20213;-53
2023/01/24 10:40:22;;;;;;;473.37;220.30;;;;;;;;;;4975377;28;20735;-53
2023/01/24 10:42:48;;;;;;;470.93;223.97;;;;;;;;;;4975395;28;20440;-54
2023/01/24 10:45:17;;;;;;;460.47;218.07;;;;;;;;;;4973217;28;20288;-55
2023/01/24 10:47:49;;;;;;;500.20;226.97;;;;;;;;;;4971702;28;20383;-54
2023/01/24 10:50:17;;;;;;;487.23;225.57;;;;;;;;;;4976862;28;20193;-54
2023/01/24 10:52:43;;;;;;;518.53;239.10;;;;;;;;;;4964923;28;20217;-53
2023/01/24 10:55:42;;;;;;;490.63;228.80;;;;;;;;;;4976398;28;20214;-54
2023/01/24 10:58:23;;;;;;;576.00;282.43;;;;;;;;;;4917813;28;22062;-55
2023/01/24 11:00:55;;;;;;;474.63;220.53;;;;;;;;;;4992805;28;20232;-54
2023/01/24 11:03:29;;;;;;;464.47;209.57;;;;;;;;;;5002416;28;20675;-54
2023/01/24 11:05:56;;;;;;;459.23;214.13;;;;;;;;;;5002730;28;20233;-54
2023/01/24 11:08:22;;;;;;;532.03;256.27;;;;;;;;;;5005026;28;20589;-54
2023/01/24 11:10:53;;;;;;;499.27;225.23;;;;;;;;;;4999669;28;20266;-53
2023/01/24 11:13:28;;;;;;;516.07;238.50;;;;;;;;;;4995994;28;20619;-54
2023/01/24 11:16:05;;;;;;;500.77;240.30;;;;;;;;;;5001783;28;20217;-53
2023/01/24 11:18:33;;;;;;;516.87;247.97;;;;;;;;;;5008474;28;20336;-53
2023/01/24 11:21:05;;;;;;;465.50;219.97;;;;;;;;;;5004952;28;20218;-53
2023/01/24 11:23:31;;;;;;;559.30;275.70;;;;;;;;;;4991508;28;20838;-53
2023/01/24 11:26:01;;;;;;;514.27;244.97;;;;;;;;;;5003179;28;21704;-54
2023/01/24 11:28:29;;;;;;;506.27;233.57;;;;;;;;;;5010785;28;20463;-54
2023/01/24 11:30:55;;;;;;;504.00;238.60;;;;;;;;;;5020494;28;20861;-53
2023/01/24 11:33:41;;;;;;;542.73;262.23;;;;;;;;;;4996014;28;20572;-54
2023/01/24 11:36:23;;;;;;;504.53;240.97;;;;;;;;;;4993016;28;21607;-54
2023/01/24 11:38:50;;;;;;;444.03;207.53;;;;;;;;;;4996607;28;20213;-54
2023/01/24 11:41:22;;;;;;;461.97;213.43;;;;;;;;;;5000322;28;20177;-53
2023/01/24 11:44:08;;;;;;;478.73;221.30;;;;;;;;;;5006223;28;20398;-53
2023/01/24 11:46:34;;;;;;;448.40;208.03;;;;;;;;;;5004312;28;20308;-53
2023/01/24 11:49:15;;;;;;;466.27;225.20;;;;;;;;;;4991417;28;20388;-52
2023/01/24 11:51:59;;;;;;;412.77;187.83;;;;;;;;;;4999974;28;20280;-53
2023/01/24 11:54:44;;;;;;;439.60;204.97;;;;;;;;;;5021319;28;20760;-54
2023/01/24 11:57:10;;;;;;;478.50;213.23;;;;;;;;;;5038343;28;20264;-53
2023/01/24 11:59:37;;;;;;;439.30;203.33;;;;;;;;;;5025939;28;20186;-54
2023/01/24 12:02:09;;;;;;;402.33;199.57;;;;;;;;;;5006381;28;20235;-53
2023/01/24 12:04:45;;;;;;;472.07;229.60;;;;;;;;;;5001291;28;20243;-54
2023/01/24 12:07:17;;;;;;;533.63;247.07;;;;;;;;;;5005157;28;20221;-53
2023/01/24 12:09:43;;;;;;;528.67;258.57;;;;;;;;;;5003469;28;20383;-51
2023/01/24 12:12:21;;;;;;;576.67;275.83;;;;;;;;;;5022159;28;20691;-50
2023/01/24 12:14:47;;;;;;;470.27;208.77;;;;;;;;;;4985031;28;20293;-51
2023/01/24 12:17:32;;;;;;;479.37;213.47;;;;;;;;;;5016946;28;20205;-53
2023/01/24 12:20:32;;;;;;;432.30;180.17;;;;;;;;;;5014922;28;20214;-55
2023/01/24 12:23:01;;;;;;;571.70;266.77;;;;;;;;;;5000921;28;20221;-54
2023/01/24 12:25:31;;;;;;;519.83;234.77;;;;;;;;;;5003110;28;20236;-53
2023/01/24 12:28:00;;;;;;;492.93;213.30;;;;;;;;;;4976544;28;20229;-53
2023/01/24 12:30:26;;;;;;;548.37;258.47;;;;;;;;;;4998561;28;20217;-53
2023/01/24 12:32:55;;;;;;;564.17;275.83;;;;;;;;;;4975339;28;20221;-53
2023/01/24 12:35:30;;;;;;;510.73;229.77;;;;;;;;;;4994795;28;21148;-53
2023/01/24 12:37:56;;;;;;;504.43;242.80;;;;;;;;;;4974022;28;20285;-53
2023/01/24 12:40:24;;;;;;;456.23;213.50;;;;;;;;;;4978750;28;20233;-54
2023/01/24 12:43:10;;;;;;;530.87;256.60;;;;;;;;;;5001974;28;20218;-54
2023/01/24 12:45:43;;;;;;;558.80;271.50;;;;;;;;;;5021418;28;20316;-53
2023/01/24 12:48:15;;;;;;;512.63;239.83;;;;;;;;;;4990395;28;20222;-54
2023/01/24 12:50:58;;;;;;;508.40;240.03;;;;;;;;;;4976464;28;20463;-53
2023/01/24 12:53:32;;;;;;;495.53;230.13;;;;;;;;;;4975018;28;20258;-55
2023/01/24 12:56:09;;;;;;;448.27;201.27;;;;;;;;;;4974152;28;20299;-51
2023/01/24 12:58:37;;;;;;;478.50;207.90;;;;;;;;;;4959523;28;20619;-51
2023/01/24 13:01:18;;;;;;;415.67;184.03;;;;;;;;;;4961709;28;20228;-50
2023/01/24 13:03:50;;;;;;;412.10;184.80;;;;;;;;;;4961806;28;20214;-50
2023/01/24 13:06:19;;;;;;;449.57;194.60;;;;;;;;;;4960014;28;20723;-50
2023/01/24 13:09:05;;;;;;;461.60;211.43;;;;;;;;;;4961174;28;20304;-50
2023/01/24 13:11:33;;;;;;;447.90;201.97;;;;;;;;;;4959440;28;20186;-51
2023/01/24 13:14:02;;;;;;;471.27;201.03;;;;;;;;;;4961750;28;20185;-50
2023/01/24 13:16:44;;;;;;;452.50;197.13;;;;;;;;;;4960425;28;20226;-50
2023/01/24 13:19:15;;;;;;;476.53;210.53;;;;;;;;;;4960667;28;20222;-50
2023/01/24 13:21:54;;;;;;;478.57;208.33;;;;;;;;;;4960644;28;20226;-50
2023/01/24 13:24:38;;;;;;;465.23;204.73;;;;;;;;;;4960445;28;20226;-50
2023/01/24 13:27:23;;;;;;;449.53;190.23;;;;;;;;;;4960723;28;20220;-51
2023/01/24 13:30:07;;;;;;;467.07;208.37;;;;;;;;;;4960651;28;20232;-50
2023/01/24 13:32:38;;;;;;;446.30;194.00;;;;;;;;;;4960875;28;20179;-51
2023/01/24 13:35:16;;;;;;;381.77;183.30;;;;;;;;;;4961518;28;20163;-50
2023/01/24 13:37:48;;;;;;;414.33;196.87;;;;;;;;;;4961685;28;20388;-51
2023/01/24 13:40:15;;;;;;;443.93;219.03;;;;;;;;;;4961040;28;20281;-50
2023/01/24 13:42:42;;;;;;;434.67;207.37;;;;;;;;;;4961611;28;20305;-51
2023/01/24 13:45:30;;;;;;;409.07;192.57;;;;;;;;;;4961112;28;20404;-51
2023/01/24 13:48:03;;;;;;;437.53;206.93;;;;;;;;;;4959348;28;20588;-49
2023/01/24 13:50:29;;;;;;;416.67;197.83;;;;;;;;;;4960448;28;20363;-49
2023/01/24 13:53:02;;;;;;;429.97;211.87;;;;;;;;;;4960676;28;20189;-49
2023/01/24 13:55:31;;;;;;;456.33;223.97;;;;;;;;;;4958758;28;20226;-50
2023/01/24 13:58:16;;;;;;;423.50;202.67;;;;;;;;;;4961653;28;20351;-50
2023/01/24 14:00:49;;;;;;;425.90;209.57;;;;;;;;;;4961337;28;20240;-50
2023/01/24 14:03:22;;;;;;;450.90;214.13;;;;;;;;;;4960179;28;20218;-50
2023/01/24 14:05:50;;;;;;;455.90;219.43;;;;;;;;;;4959324;28;20234;-51
2023/01/24 14:08:28;;;;;;;391.63;193.60;;;;;;;;;;4960852;28;20223;-50
2023/01/24 14:11:03;;;;;;;422.23;205.90;;;;;;;;;;4962187;28;20214;-50
2023/01/24 14:13:48;;;;;;;371.63;186.77;;;;;;;;;;4962116;28;20229;-51
2023/01/24 14:16:14;;;;;;;392.70;191.57;;;;;;;;;;4960338;28;20731;-50
2023/01/24 14:18:49;;;;;;;366.60;178.80;;;;;;;;;;4959573;28;20602;-50
2023/01/24 14:21:20;;;;;;;394.90;188.33;;;;;;;;;;4962220;28;20228;-50
2023/01/24 14:23:52;;;;;;;387.97;179.30;;;;;;;;;;4962055;28;20299;-51
2023/01/24 14:26:20;;;;;;;383.57;180.07;;;;;;;;;;4962548;28;20210;-50
2023/01/24 14:28:55;;;;;;;371.57;174.43;;;;;;;;;;4962318;28;20692;-49
2023/01/24 14:31:24;;;;;;;337.43;161.77;;;;;;;;;;4961863;28;20221;-50
2023/01/24 14:33:50;;;;;;;386.17;183.87;;;;;;;;;;4961956;28;20273;-50
2023/01/24 14:36:21;;;;;;;373.87;177.53;;;;;;;;;;4961786;28;20306;-50
2023/01/24 14:38:47;;;;;;;411.57;198.27;;;;;;;;;;4961893;28;20745;-50
2023/01/24 14:41:23;;;;;;;377.20;180.60;;;;;;;;;;4962584;28;20189;-50
2023/01/24 14:43:50;;;;;;;381.90;185.97;;;;;;;;;;4962139;28;20221;-50
2023/01/24 14:46:27;;;;;;;381.27;185.83;;;;;;;;;;4967446;28;20670;-50